sensor_id;sensor_type;location;lat;lon;timestamp;temperature;humidity
75296;DHT22;64623;44.738;37.804;2023-09-19T00:00:27;3.73;118.99
75296;DHT22;64623;44.738;37.804;2023-09-19T00:01:30;3.72;118.99
75296;DHT22;64623;44.738;37.804;2023-09-19T00:02:34;3.70;118.99
75296;DHT22;64623;44.738;37.804;2023-09-19T00:03:39;3.71;118.99
75296;DHT22;64623;44.738;37.804;2023-09-19T00:04:45;3.71;118.99
75296;DHT22;64623;44.738;37.804;2023-09-19T00:05:48;3.72;118.99
75296;DHT22;64623;44.738;37.804;2023-09-19T00:06:53;3.73;118.99
75296;DHT22;64623;44.738;37.804;2023-09-19T00:07:57;3.72;118.99
75296;DHT22;64623;44.738;37.804;2023-09-19T00:09:04;3.74;118.99
75296;DHT22;64623;44.738;37.804;2023-09-19T00:10:07;3.71;118.99
75296;DHT22;64623;44.738;37.804;2023-09-19T00:11:12;3.72;118.99
75296;DHT22;64623;44.738;37.804;2023-09-19T00:12:15;3.75;118.99
75296;DHT22;64623;44.738;37.804;2023-09-19T00:13:18;3.82;118.99
75296;DHT22;64623;44.738;37.804;2023-09-19T00:14:25;3.85;118.99
75296;DHT22;64623;44.738;37.804;2023-09-19T00:15:28;3.87;118.99
75296;DHT22;64623;44.738;37.804;2023-09-19T00:16:36;3.88;118.99
75296;DHT22;64623;44.738;37.804;2023-09-19T00:17:39;3.89;118.99
75296;DHT22;64623;44.738;37.804;2023-09-19T00:18:43;3.87;118.99
75296;DHT22;64623;44.738;37.804;2023-09-19T00:19:46;3.86;118.99
75296;DHT22;64623;44.738;37.804;2023-09-19T00:20:58;3.85;118.99
75296;DHT22;64623;44.738;37.804;2023-09-19T00:22:01;3.86;118.99
75296;DHT22;64623;44.738;37.804;2023-09-19T00:23:05;3.86;118.99
75296;DHT22;64623;44.738;37.804;2023-09-19T00:24:08;3.85;118.99
75296;DHT22;64623;44.738;37.804;2023-09-19T00:25:12;3.83;118.99
75296;DHT22;64623;44.738;37.804;2023-09-19T00:26:15;3.84;118.99
75296;DHT22;64623;44.738;37.804;2023-09-19T00:27:21;3.85;118.99
75296;DHT22;64623;44.738;37.804;2023-09-19T00:28:25;3.83;118.99
75296;DHT22;64623;44.738;37.804;2023-09-19T00:29:28;3.83;118.99
75296;DHT22;64623;44.738;37.804;2023-09-19T00:30:34;3.80;118.99
75296;DHT22;64623;44.738;37.804;2023-09-19T00:31:38;3.84;118.99
75296;DHT22;64623;44.738;37.804;2023-09-19T00:32:44;3.82;118.99
75296;DHT22;64623;44.738;37.804;2023-09-19T00:33:50;3.83;118.99
75296;DHT22;64623;44.738;37.804;2023-09-19T00:34:53;3.84;118.99
75296;DHT22;64623;44.738;37.804;2023-09-19T00:35:57;3.85;118.99
75296;DHT22;64623;44.738;37.804;2023-09-19T00:37:00;3.85;118.99
75296;DHT22;64623;44.738;37.804;2023-09-19T00:38:03;3.87;118.99
75296;DHT22;64623;44.738;37.804;2023-09-19T00:39:06;3.87;118.99
75296;DHT22;64623;44.738;37.804;2023-09-19T00:40:11;3.86;118.99
75296;DHT22;64623;44.738;37.804;2023-09-19T00:41:14;3.86;118.99
75296;DHT22;64623;44.738;37.804;2023-09-19T00:42:20;3.84;118.99
75296;DHT22;64623;44.738;37.804;2023-09-19T00:43:23;3.83;118.99
75296;DHT22;64623;44.738;37.804;2023-09-19T00:44:28;3.80;118.99
75296;DHT22;64623;44.738;37.804;2023-09-19T00:45:31;3.80;118.99
75296;DHT22;64623;44.738;37.804;2023-09-19T00:46:35;3.78;118.99
75296;DHT22;64623;44.738;37.804;2023-09-19T00:47:41;3.77;118.99
75296;DHT22;64623;44.738;37.804;2023-09-19T00:48:45;3.76;118.99
75296;DHT22;64623;44.738;37.804;2023-09-19T00:49:49;3.77;118.99
75296;DHT22;64623;44.738;37.804;2023-09-19T00:50:53;3.77;118.99
75296;DHT22;64623;44.738;37.804;2023-09-19T00:51:56;3.76;118.99
75296;DHT22;64623;44.738;37.804;2023-09-19T00:53:00;3.75;118.99
75296;DHT22;64623;44.738;37.804;2023-09-19T00:54:04;3.74;118.99
75296;DHT22;64623;44.738;37.804;2023-09-19T00:55:08;3.77;118.99
75296;DHT22;64623;44.738;37.804;2023-09-19T00:56:12;3.77;118.99
75296;DHT22;64623;44.738;37.804;2023-09-19T00:57:15;3.75;118.99
75296;DHT22;64623;44.738;37.804;2023-09-19T00:58:23;3.72;118.99
75296;DHT22;64623;44.738;37.804;2023-09-19T00:59:26;3.72;118.99
75296;DHT22;64623;44.738;37.804;2023-09-19T01:00:30;3.72;118.99
75296;DHT22;64623;44.738;37.804;2023-09-19T01:01:33;3.69;118.99
75296;DHT22;64623;44.738;37.804;2023-09-19T01:02:38;3.67;118.99
75296;DHT22;64623;44.738;37.804;2023-09-19T01:03:41;3.65;118.99
75296;DHT22;64623;44.738;37.804;2023-09-19T01:04:45;3.62;118.99
75296;DHT22;64623;44.738;37.804;2023-09-19T01:05:48;3.59;118.99
75296;DHT22;64623;44.738;37.804;2023-09-19T01:06:53;3.57;118.99
75296;DHT22;64623;44.738;37.804;2023-09-19T01:07:56;3.54;118.99
75296;DHT22;64623;44.738;37.804;2023-09-19T01:08:59;3.50;118.99
75296;DHT22;64623;44.738;37.804;2023-09-19T01:10:03;3.46;118.99
75296;DHT22;64623;44.738;37.804;2023-09-19T01:11:38;3.43;118.99
75296;DHT22;64623;44.738;37.804;2023-09-19T01:14:02;3.46;118.99
75296;DHT22;64623;44.738;37.804;2023-09-19T01:16:48;3.48;118.99
75296;DHT22;64623;44.738;37.804;2023-09-19T01:18:07;3.48;118.99
75296;DHT22;64623;44.738;37.804;2023-09-19T01:22:24;3.54;118.99
75296;DHT22;64623;44.738;37.804;2023-09-19T01:25:26;3.52;118.99
75296;DHT22;64623;44.738;37.804;2023-09-19T01:29:44;3.55;118.99
75296;DHT22;64623;44.738;37.804;2023-09-19T01:30:52;3.56;118.99
75296;DHT22;64623;44.738;37.804;2023-09-19T01:32:04;3.58;118.99
75296;DHT22;64623;44.738;37.804;2023-09-19T01:33:10;3.59;118.99
75296;DHT22;64623;44.738;37.804;2023-09-19T01:34:13;3.58;118.99
75296;DHT22;64623;44.738;37.804;2023-09-19T01:35:16;3.59;118.99
75296;DHT22;64623;44.738;37.804;2023-09-19T01:36:21;3.58;118.99
75296;DHT22;64623;44.738;37.804;2023-09-19T01:37:26;3.62;118.99
75296;DHT22;64623;44.738;37.804;2023-09-19T01:38:30;3.63;118.99
75296;DHT22;64623;44.738;37.804;2023-09-19T01:39:33;3.63;118.99
75296;DHT22;64623;44.738;37.804;2023-09-19T01:40:41;3.62;118.99
75296;DHT22;64623;44.738;37.804;2023-09-19T01:42:57;3.61;118.99
75296;DHT22;64623;44.738;37.804;2023-09-19T01:44:04;3.61;118.99
75296;DHT22;64623;44.738;37.804;2023-09-19T01:45:23;3.61;118.99
75296;DHT22;64623;44.738;37.804;2023-09-19T01:46:35;3.61;118.99
75296;DHT22;64623;44.738;37.804;2023-09-19T01:47:51;3.59;118.99
75296;DHT22;64623;44.738;37.804;2023-09-19T01:50:29;3.54;118.99
75296;DHT22;64623;44.738;37.804;2023-09-19T01:52:12;3.53;118.99
75296;DHT22;64623;44.738;37.804;2023-09-19T01:53:30;3.48;118.99
75296;DHT22;64623;44.738;37.804;2023-09-19T01:54:59;3.48;118.99
75296;DHT22;64623;44.738;37.804;2023-09-19T01:56:12;3.46;118.99
75296;DHT22;64623;44.738;37.804;2023-09-19T01:57:29;3.46;118.99
75296;DHT22;64623;44.738;37.804;2023-09-19T01:58:38;3.45;118.99
75296;DHT22;64623;44.738;37.804;2023-09-19T01:59:47;3.42;118.99
75296;DHT22;64623;44.738;37.804;2023-09-19T02:00:52;3.42;118.99
75296;DHT22;64623;44.738;37.804;2023-09-19T02:01:56;3.41;118.99
75296;DHT22;64623;44.738;37.804;2023-09-19T02:02:59;3.36;118.99
75296;DHT22;64623;44.738;37.804;2023-09-19T02:04:04;3.36;118.99
75296;DHT22;64623;44.738;37.804;2023-09-19T02:05:07;3.35;118.99
75296;DHT22;64623;44.738;37.804;2023-09-19T02:06:19;3.33;118.99
75296;DHT22;64623;44.738;37.804;2023-09-19T02:07:24;3.31;118.99
75296;DHT22;64623;44.738;37.804;2023-09-19T02:08:26;3.33;118.99
75296;DHT22;64623;44.738;37.804;2023-09-19T02:09:29;3.34;118.99
75296;DHT22;64623;44.738;37.804;2023-09-19T02:10:32;3.33;118.99
75296;DHT22;64623;44.738;37.804;2023-09-19T02:11:37;3.32;118.99
75296;DHT22;64623;44.738;37.804;2023-09-19T02:12:39;3.33;118.99
75296;DHT22;64623;44.738;37.804;2023-09-19T02:13:43;3.33;118.99
75296;DHT22;64623;44.738;37.804;2023-09-19T02:14:46;3.33;118.99
75296;DHT22;64623;44.738;37.804;2023-09-19T02:15:49;3.31;118.99
75296;DHT22;64623;44.738;37.804;2023-09-19T02:16:52;3.28;118.99
75296;DHT22;64623;44.738;37.804;2023-09-19T02:17:55;3.25;118.99
75296;DHT22;64623;44.738;37.804;2023-09-19T02:18:59;3.28;118.99
75296;DHT22;64623;44.738;37.804;2023-09-19T02:20:02;3.27;118.99
75296;DHT22;64623;44.738;37.804;2023-09-19T02:21:13;3.25;118.99
75296;DHT22;64623;44.738;37.804;2023-09-19T02:22:16;3.24;118.99
75296;DHT22;64623;44.738;37.804;2023-09-19T02:23:19;3.21;118.99
75296;DHT22;64623;44.738;37.804;2023-09-19T02:24:21;3.25;118.99
75296;DHT22;64623;44.738;37.804;2023-09-19T02:25:25;3.24;118.99
75296;DHT22;64623;44.738;37.804;2023-09-19T02:26:29;3.21;118.99
75296;DHT22;64623;44.738;37.804;2023-09-19T02:27:32;3.20;118.99
75296;DHT22;64623;44.738;37.804;2023-09-19T02:28:35;3.21;118.99
75296;DHT22;64623;44.738;37.804;2023-09-19T02:29:38;3.21;118.99
75296;DHT22;64623;44.738;37.804;2023-09-19T02:30:41;3.21;118.99
75296;DHT22;64623;44.738;37.804;2023-09-19T02:31:44;3.20;118.99
75296;DHT22;64623;44.738;37.804;2023-09-19T02:32:49;3.21;118.99
75296;DHT22;64623;44.738;37.804;2023-09-19T02:33:53;3.21;118.99
75296;DHT22;64623;44.738;37.804;2023-09-19T02:34:57;3.21;118.99
75296;DHT22;64623;44.738;37.804;2023-09-19T02:36:05;3.24;118.99
75296;DHT22;64623;44.738;37.804;2023-09-19T02:37:08;3.27;118.99
75296;DHT22;64623;44.738;37.804;2023-09-19T02:38:16;3.28;118.99
75296;DHT22;64623;44.738;37.804;2023-09-19T02:39:27;3.26;118.99
75296;DHT22;64623;44.738;37.804;2023-09-19T02:40:31;3.28;118.99
75296;DHT22;64623;44.738;37.804;2023-09-19T02:41:35;3.32;118.99
75296;DHT22;64623;44.738;37.804;2023-09-19T02:42:39;3.31;118.99
75296;DHT22;64623;44.738;37.804;2023-09-19T02:43:45;3.30;118.99
75296;DHT22;64623;44.738;37.804;2023-09-19T02:44:48;3.29;118.99
75296;DHT22;64623;44.738;37.804;2023-09-19T02:45:51;3.29;118.99
75296;DHT22;64623;44.738;37.804;2023-09-19T02:46:57;3.30;118.99
75296;DHT22;64623;44.738;37.804;2023-09-19T02:48:02;3.30;118.99
75296;DHT22;64623;44.738;37.804;2023-09-19T02:49:05;3.30;118.99
75296;DHT22;64623;44.738;37.804;2023-09-19T02:50:10;3.30;118.99
75296;DHT22;64623;44.738;37.804;2023-09-19T02:51:16;3.29;118.99
75296;DHT22;64623;44.738;37.804;2023-09-19T02:52:19;3.28;118.99
75296;DHT22;64623;44.738;37.804;2023-09-19T02:53:22;3.38;118.99
75296;DHT22;64623;44.738;37.804;2023-09-19T02:54:26;3.39;118.99
75296;DHT22;64623;44.738;37.804;2023-09-19T02:55:29;3.35;118.99
75296;DHT22;64623;44.738;37.804;2023-09-19T02:56:33;3.33;118.99
75296;DHT22;64623;44.738;37.804;2023-09-19T02:57:36;3.31;118.99
75296;DHT22;64623;44.738;37.804;2023-09-19T02:58:43;3.32;118.99
75296;DHT22;64623;44.738;37.804;2023-09-19T02:59:47;3.32;118.99
75296;DHT22;64623;44.738;37.804;2023-09-19T03:00:50;3.31;118.99
75296;DHT22;64623;44.738;37.804;2023-09-19T03:01:54;3.32;118.99
75296;DHT22;64623;44.738;37.804;2023-09-19T03:02:57;3.34;118.99
75296;DHT22;64623;44.738;37.804;2023-09-19T03:04:02;3.36;118.99
75296;DHT22;64623;44.738;37.804;2023-09-19T03:05:06;3.34;118.99
75296;DHT22;64623;44.738;37.804;2023-09-19T03:06:10;3.35;118.99
75296;DHT22;64623;44.738;37.804;2023-09-19T03:07:15;3.35;118.99
75296;DHT22;64623;44.738;37.804;2023-09-19T03:08:19;3.36;118.99
75296;DHT22;64623;44.738;37.804;2023-09-19T03:09:23;3.36;118.99
75296;DHT22;64623;44.738;37.804;2023-09-19T03:10:26;3.34;118.99
75296;DHT22;64623;44.738;37.804;2023-09-19T03:11:32;3.35;118.99
75296;DHT22;64623;44.738;37.804;2023-09-19T03:12:35;3.35;118.99
75296;DHT22;64623;44.738;37.804;2023-09-19T03:13:39;3.34;118.99
75296;DHT22;64623;44.738;37.804;2023-09-19T03:14:42;3.35;118.99
75296;DHT22;64623;44.738;37.804;2023-09-19T03:15:46;3.40;118.99
75296;DHT22;64623;44.738;37.804;2023-09-19T03:16:53;3.42;118.99
75296;DHT22;64623;44.738;37.804;2023-09-19T03:17:56;3.42;118.99
75296;DHT22;64623;44.738;37.804;2023-09-19T03:19:00;3.42;118.99
75296;DHT22;64623;44.738;37.804;2023-09-19T03:20:06;3.40;118.99
75296;DHT22;64623;44.738;37.804;2023-09-19T03:21:11;3.43;118.99
75296;DHT22;64623;44.738;37.804;2023-09-19T03:22:15;3.42;118.99
75296;DHT22;64623;44.738;37.804;2023-09-19T03:23:19;3.41;118.99
75296;DHT22;64623;44.738;37.804;2023-09-19T03:24:22;3.40;118.99
75296;DHT22;64623;44.738;37.804;2023-09-19T03:25:26;3.38;118.99
75296;DHT22;64623;44.738;37.804;2023-09-19T03:26:29;3.39;118.99
75296;DHT22;64623;44.738;37.804;2023-09-19T03:27:32;3.39;118.99
75296;DHT22;64623;44.738;37.804;2023-09-19T03:28:35;3.40;118.99
75296;DHT22;64623;44.738;37.804;2023-09-19T03:29:38;3.39;118.99
75296;DHT22;64623;44.738;37.804;2023-09-19T03:30:42;3.40;118.99
75296;DHT22;64623;44.738;37.804;2023-09-19T03:31:45;3.40;118.99
75296;DHT22;64623;44.738;37.804;2023-09-19T03:32:48;3.40;118.99
75296;DHT22;64623;44.738;37.804;2023-09-19T03:33:52;3.41;118.99
75296;DHT22;64623;44.738;37.804;2023-09-19T03:34:57;3.43;118.99
75296;DHT22;64623;44.738;37.804;2023-09-19T03:36:01;3.43;118.99
75296;DHT22;64623;44.738;37.804;2023-09-19T03:37:11;3.45;118.99
75296;DHT22;64623;44.738;37.804;2023-09-19T03:38:14;3.45;118.99
75296;DHT22;64623;44.738;37.804;2023-09-19T03:39:17;3.44;118.99
75296;DHT22;64623;44.738;37.804;2023-09-19T03:40:21;3.45;118.99
75296;DHT22;64623;44.738;37.804;2023-09-19T03:41:26;3.46;118.99
75296;DHT22;64623;44.738;37.804;2023-09-19T03:42:29;3.45;118.99
75296;DHT22;64623;44.738;37.804;2023-09-19T03:43:32;3.43;118.99
75296;DHT22;64623;44.738;37.804;2023-09-19T03:44:35;3.43;118.99
75296;DHT22;64623;44.738;37.804;2023-09-19T03:45:38;3.42;118.99
75296;DHT22;64623;44.738;37.804;2023-09-19T03:46:43;3.44;118.99
75296;DHT22;64623;44.738;37.804;2023-09-19T03:47:46;3.42;118.99
75296;DHT22;64623;44.738;37.804;2023-09-19T03:48:55;3.43;118.99
75296;DHT22;64623;44.738;37.804;2023-09-19T03:49:58;3.44;118.99
75296;DHT22;64623;44.738;37.804;2023-09-19T03:51:01;3.45;118.99
75296;DHT22;64623;44.738;37.804;2023-09-19T03:52:05;3.45;118.99
75296;DHT22;64623;44.738;37.804;2023-09-19T03:53:08;3.46;118.99
75296;DHT22;64623;44.738;37.804;2023-09-19T03:54:12;3.47;118.99
75296;DHT22;64623;44.738;37.804;2023-09-19T03:55:15;3.48;118.99
75296;DHT22;64623;44.738;37.804;2023-09-19T03:56:18;3.49;118.99
75296;DHT22;64623;44.738;37.804;2023-09-19T03:57:21;3.49;118.99
75296;DHT22;64623;44.738;37.804;2023-09-19T03:58:25;3.48;118.99
75296;DHT22;64623;44.738;37.804;2023-09-19T03:59:29;3.50;118.99
75296;DHT22;64623;44.738;37.804;2023-09-19T04:00:32;3.54;118.99
75296;DHT22;64623;44.738;37.804;2023-09-19T04:01:39;3.54;118.99
75296;DHT22;64623;44.738;37.804;2023-09-19T04:02:44;3.57;118.99
75296;DHT22;64623;44.738;37.804;2023-09-19T04:03:48;3.58;118.99
75296;DHT22;64623;44.738;37.804;2023-09-19T04:04:54;3.59;118.99
75296;DHT22;64623;44.738;37.804;2023-09-19T04:05:57;3.61;118.99
75296;DHT22;64623;44.738;37.804;2023-09-19T04:07:00;3.61;118.99
75296;DHT22;64623;44.738;37.804;2023-09-19T04:08:04;3.67;118.99
75296;DHT22;64623;44.738;37.804;2023-09-19T04:09:07;3.69;118.99
75296;DHT22;64623;44.738;37.804;2023-09-19T04:10:11;3.71;118.99
75296;DHT22;64623;44.738;37.804;2023-09-19T04:11:15;3.74;118.99
75296;DHT22;64623;44.738;37.804;2023-09-19T04:12:18;3.74;118.99
75296;DHT22;64623;44.738;37.804;2023-09-19T04:13:21;3.76;118.99
75296;DHT22;64623;44.738;37.804;2023-09-19T04:14:24;3.79;118.99
75296;DHT22;64623;44.738;37.804;2023-09-19T04:15:27;3.83;118.99
75296;DHT22;64623;44.738;37.804;2023-09-19T04:16:30;3.86;118.99
75296;DHT22;64623;44.738;37.804;2023-09-19T04:17:33;3.89;118.99
75296;DHT22;64623;44.738;37.804;2023-09-19T04:18:36;3.92;118.99
75296;DHT22;64623;44.738;37.804;2023-09-19T04:19:41;3.95;118.99
75296;DHT22;64623;44.738;37.804;2023-09-19T04:20:49;3.97;118.99
75296;DHT22;64623;44.738;37.804;2023-09-19T04:21:52;4.00;118.99
75296;DHT22;64623;44.738;37.804;2023-09-19T04:22:55;4.02;118.99
75296;DHT22;64623;44.738;37.804;2023-09-19T04:23:58;4.05;118.99
75296;DHT22;64623;44.738;37.804;2023-09-19T04:25:02;4.07;118.99
75296;DHT22;64623;44.738;37.804;2023-09-19T04:26:05;4.09;118.99
75296;DHT22;64623;44.738;37.804;2023-09-19T04:27:09;4.15;118.99
75296;DHT22;64623;44.738;37.804;2023-09-19T04:28:13;4.16;118.99
75296;DHT22;64623;44.738;37.804;2023-09-19T04:29:16;4.18;118.99
75296;DHT22;64623;44.738;37.804;2023-09-19T04:30:21;4.22;118.99
75296;DHT22;64623;44.738;37.804;2023-09-19T04:31:25;4.26;118.99
75296;DHT22;64623;44.738;37.804;2023-09-19T04:32:28;4.27;118.99
75296;DHT22;64623;44.738;37.804;2023-09-19T04:33:32;4.27;118.99
75296;DHT22;64623;44.738;37.804;2023-09-19T04:34:37;4.24;118.99
75296;DHT22;64623;44.738;37.804;2023-09-19T04:35:41;4.20;118.99
75296;DHT22;64623;44.738;37.804;2023-09-19T04:36:45;4.18;118.99
75296;DHT22;64623;44.738;37.804;2023-09-19T04:37:48;4.18;118.99
75296;DHT22;64623;44.738;37.804;2023-09-19T04:38:53;4.23;118.99
75296;DHT22;64623;44.738;37.804;2023-09-19T04:39:56;4.29;118.99
75296;DHT22;64623;44.738;37.804;2023-09-19T04:41:00;4.34;118.99
75296;DHT22;64623;44.738;37.804;2023-09-19T04:42:03;4.39;118.99
75296;DHT22;64623;44.738;37.804;2023-09-19T04:43:06;4.45;118.99
75296;DHT22;64623;44.738;37.804;2023-09-19T04:44:10;4.48;118.99
75296;DHT22;64623;44.738;37.804;2023-09-19T04:45:13;4.53;118.99
75296;DHT22;64623;44.738;37.804;2023-09-19T04:46:16;4.58;118.99
75296;DHT22;64623;44.738;37.804;2023-09-19T04:47:20;4.62;118.99
75296;DHT22;64623;44.738;37.804;2023-09-19T04:48:24;4.61;118.99
75296;DHT22;64623;44.738;37.804;2023-09-19T04:49:27;4.57;118.99
75296;DHT22;64623;44.738;37.804;2023-09-19T04:50:30;4.50;118.99
75296;DHT22;64623;44.738;37.804;2023-09-19T04:51:33;4.47;118.99
75296;DHT22;64623;44.738;37.804;2023-09-19T04:52:40;4.44;118.99
75296;DHT22;64623;44.738;37.804;2023-09-19T04:53:44;4.43;118.99
75296;DHT22;64623;44.738;37.804;2023-09-19T04:54:47;4.42;118.99
75296;DHT22;64623;44.738;37.804;2023-09-19T04:55:52;4.44;118.99
75296;DHT22;64623;44.738;37.804;2023-09-19T04:56:55;4.50;118.99
75296;DHT22;64623;44.738;37.804;2023-09-19T04:57:58;4.57;118.99
75296;DHT22;64623;44.738;37.804;2023-09-19T04:59:01;4.64;118.99
75296;DHT22;64623;44.738;37.804;2023-09-19T05:00:04;4.72;118.99
75296;DHT22;64623;44.738;37.804;2023-09-19T05:01:14;4.80;118.99
75296;DHT22;64623;44.738;37.804;2023-09-19T05:02:18;4.84;118.99
75296;DHT22;64623;44.738;37.804;2023-09-19T05:03:20;4.91;118.99
75296;DHT22;64623;44.738;37.804;2023-09-19T05:04:24;4.95;118.99
75296;DHT22;64623;44.738;37.804;2023-09-19T05:05:27;4.98;118.99
75296;DHT22;64623;44.738;37.804;2023-09-19T05:06:31;5.02;118.99
75296;DHT22;64623;44.738;37.804;2023-09-19T05:07:34;5.09;118.99
75296;DHT22;64623;44.738;37.804;2023-09-19T05:08:37;5.12;118.99
75296;DHT22;64623;44.738;37.804;2023-09-19T05:09:41;5.16;118.99
75296;DHT22;64623;44.738;37.804;2023-09-19T05:10:45;5.20;118.99
75296;DHT22;64623;44.738;37.804;2023-09-19T05:11:48;5.25;118.99
75296;DHT22;64623;44.738;37.804;2023-09-19T05:12:53;5.26;118.99
75296;DHT22;64623;44.738;37.804;2023-09-19T05:13:56;5.23;118.99
75296;DHT22;64623;44.738;37.804;2023-09-19T05:14:59;5.17;118.99
75296;DHT22;64623;44.738;37.804;2023-09-19T05:16:02;5.12;118.99
75296;DHT22;64623;44.738;37.804;2023-09-19T05:17:05;5.09;118.99
75296;DHT22;64623;44.738;37.804;2023-09-19T05:18:08;5.13;118.99
75296;DHT22;64623;44.738;37.804;2023-09-19T05:19:11;5.21;118.99
75296;DHT22;64623;44.738;37.804;2023-09-19T05:20:14;5.27;118.99
75296;DHT22;64623;44.738;37.804;2023-09-19T05:21:37;5.36;118.99
75296;DHT22;64623;44.738;37.804;2023-09-19T05:22:42;5.45;118.99
75296;DHT22;64623;44.738;37.804;2023-09-19T05:23:45;5.50;118.99
75296;DHT22;64623;44.738;37.804;2023-09-19T05:24:48;5.59;118.99
75296;DHT22;64623;44.738;37.804;2023-09-19T05:25:51;5.64;118.99
75296;DHT22;64623;44.738;37.804;2023-09-19T05:26:54;5.72;118.99
75296;DHT22;64623;44.738;37.804;2023-09-19T05:27:58;5.79;118.99
75296;DHT22;64623;44.738;37.804;2023-09-19T05:29:01;5.83;118.99
75296;DHT22;64623;44.738;37.804;2023-09-19T05:30:06;5.85;118.99
75296;DHT22;64623;44.738;37.804;2023-09-19T05:31:09;5.90;118.99
75296;DHT22;64623;44.738;37.804;2023-09-19T05:32:12;5.96;118.99
75296;DHT22;64623;44.738;37.804;2023-09-19T05:33:15;6.00;118.99
75296;DHT22;64623;44.738;37.804;2023-09-19T05:34:18;6.07;118.99
75296;DHT22;64623;44.738;37.804;2023-09-19T05:35:21;6.12;118.99
75296;DHT22;64623;44.738;37.804;2023-09-19T05:36:27;6.15;118.99
75296;DHT22;64623;44.738;37.804;2023-09-19T05:37:32;6.15;118.99
75296;DHT22;64623;44.738;37.804;2023-09-19T05:38:35;6.23;118.99
75296;DHT22;64623;44.738;37.804;2023-09-19T05:39:37;6.28;118.99
75296;DHT22;64623;44.738;37.804;2023-09-19T05:40:40;6.30;118.99
75296;DHT22;64623;44.738;37.804;2023-09-19T05:41:45;6.34;118.99
75296;DHT22;64623;44.738;37.804;2023-09-19T05:42:50;6.35;118.99
75296;DHT22;64623;44.738;37.804;2023-09-19T05:43:53;6.44;118.99
75296;DHT22;64623;44.738;37.804;2023-09-19T05:44:57;6.49;118.99
75296;DHT22;64623;44.738;37.804;2023-09-19T05:46:01;6.50;118.99
75296;DHT22;64623;44.738;37.804;2023-09-19T05:47:04;6.49;118.99
75296;DHT22;64623;44.738;37.804;2023-09-19T05:48:12;6.57;118.99
75296;DHT22;64623;44.738;37.804;2023-09-19T05:49:19;6.61;118.99
75296;DHT22;64623;44.738;37.804;2023-09-19T05:50:24;6.67;118.99
75296;DHT22;64623;44.738;37.804;2023-09-19T05:51:27;6.70;118.99
75296;DHT22;64623;44.738;37.804;2023-09-19T05:52:31;6.76;118.99
75296;DHT22;64623;44.738;37.804;2023-09-19T05:53:34;6.80;118.99
75296;DHT22;64623;44.738;37.804;2023-09-19T05:54:37;6.79;118.99
75296;DHT22;64623;44.738;37.804;2023-09-19T05:55:40;6.80;118.99
75296;DHT22;64623;44.738;37.804;2023-09-19T05:56:44;6.80;118.99
75296;DHT22;64623;44.738;37.804;2023-09-19T05:57:50;6.82;118.99
75296;DHT22;64623;44.738;37.804;2023-09-19T05:58:57;6.86;118.99
75296;DHT22;64623;44.738;37.804;2023-09-19T06:00:00;7.01;118.99
75296;DHT22;64623;44.738;37.804;2023-09-19T06:01:13;7.08;118.99
75296;DHT22;64623;44.738;37.804;2023-09-19T06:02:16;6.98;118.99
75296;DHT22;64623;44.738;37.804;2023-09-19T06:03:19;6.97;118.99
75296;DHT22;64623;44.738;37.804;2023-09-19T06:04:23;7.01;118.99
75296;DHT22;64623;44.738;37.804;2023-09-19T06:05:27;7.05;118.99
75296;DHT22;64623;44.738;37.804;2023-09-19T06:06:30;7.05;118.99
75296;DHT22;64623;44.738;37.804;2023-09-19T06:07:33;7.13;118.99
75296;DHT22;64623;44.738;37.804;2023-09-19T06:08:40;7.16;118.99
75296;DHT22;64623;44.738;37.804;2023-09-19T06:09:43;7.18;118.99
75296;DHT22;64623;44.738;37.804;2023-09-19T06:10:46;7.20;118.99
75296;DHT22;64623;44.738;37.804;2023-09-19T06:11:49;7.24;118.99
75296;DHT22;64623;44.738;37.804;2023-09-19T06:12:54;7.26;118.99
75296;DHT22;64623;44.738;37.804;2023-09-19T06:14:02;7.32;118.99
75296;DHT22;64623;44.738;37.804;2023-09-19T06:15:05;7.38;118.99
75296;DHT22;64623;44.738;37.804;2023-09-19T06:16:09;7.33;118.99
75296;DHT22;64623;44.738;37.804;2023-09-19T06:17:12;7.40;118.99
75296;DHT22;64623;44.738;37.804;2023-09-19T06:18:15;7.42;118.99
75296;DHT22;64623;44.738;37.804;2023-09-19T06:19:22;7.45;118.99
75296;DHT22;64623;44.738;37.804;2023-09-19T06:20:26;7.49;118.99
75296;DHT22;64623;44.738;37.804;2023-09-19T06:21:29;7.47;118.99
75296;DHT22;64623;44.738;37.804;2023-09-19T06:22:32;7.55;118.99
75296;DHT22;64623;44.738;37.804;2023-09-19T06:23:36;7.50;118.99
75296;DHT22;64623;44.738;37.804;2023-09-19T06:24:39;7.53;118.99
75296;DHT22;64623;44.738;37.804;2023-09-19T06:25:43;7.50;118.99
75296;DHT22;64623;44.738;37.804;2023-09-19T06:26:46;7.58;118.99
75296;DHT22;64623;44.738;37.804;2023-09-19T06:27:51;7.54;118.99
75296;DHT22;64623;44.738;37.804;2023-09-19T06:28:56;7.56;118.99
75296;DHT22;64623;44.738;37.804;2023-09-19T06:29:59;7.64;118.99
75296;DHT22;64623;44.738;37.804;2023-09-19T06:31:05;7.79;118.99
75296;DHT22;64623;44.738;37.804;2023-09-19T06:32:12;7.86;118.99
75296;DHT22;64623;44.738;37.804;2023-09-19T06:33:15;7.99;118.99
75296;DHT22;64623;44.738;37.804;2023-09-19T06:34:20;8.00;118.99
75296;DHT22;64623;44.738;37.804;2023-09-19T06:35:24;8.13;118.99
75296;DHT22;64623;44.738;37.804;2023-09-19T06:36:29;8.13;118.99
75296;DHT22;64623;44.738;37.804;2023-09-19T06:37:32;8.18;118.99
75296;DHT22;64623;44.738;37.804;2023-09-19T06:38:35;8.20;118.99
75296;DHT22;64623;44.738;37.804;2023-09-19T06:39:38;8.21;118.99
75296;DHT22;64623;44.738;37.804;2023-09-19T06:40:41;8.24;118.99
75296;DHT22;64623;44.738;37.804;2023-09-19T06:41:45;8.20;118.99
75296;DHT22;64623;44.738;37.804;2023-09-19T06:42:52;8.16;118.99
75296;DHT22;64623;44.738;37.804;2023-09-19T06:43:56;8.14;118.99
75296;DHT22;64623;44.738;37.804;2023-09-19T06:45:00;8.14;118.99
75296;DHT22;64623;44.738;37.804;2023-09-19T06:46:04;8.18;118.99
75296;DHT22;64623;44.738;37.804;2023-09-19T06:47:10;8.22;118.99
75296;DHT22;64623;44.738;37.804;2023-09-19T06:48:13;8.27;118.99
75296;DHT22;64623;44.738;37.804;2023-09-19T06:49:16;8.36;118.99
75296;DHT22;64623;44.738;37.804;2023-09-19T06:50:21;8.45;118.99
75296;DHT22;64623;44.738;37.804;2023-09-19T06:51:26;8.55;118.99
75296;DHT22;64623;44.738;37.804;2023-09-19T06:52:29;8.56;118.99
75296;DHT22;64623;44.738;37.804;2023-09-19T06:53:32;8.60;118.99
75296;DHT22;64623;44.738;37.804;2023-09-19T06:54:37;8.77;118.99
75296;DHT22;64623;44.738;37.804;2023-09-19T06:55:40;8.88;118.99